Time;durP1;ratioP1;P1;durP2;ratioP2;P2;SDS_P1;SDS_P2;PMS_P1;PMS_P2;Temp;Humidity;BMP_temperature;BMP_pressure;BME280_temperature;BME280_humidity;BME280_pressure;Samples;Min_cycle;Max_cycle;Signal;HPM_P1;HPM_P2
2023/05/06 00:01:55;;;;;;;7.37;4.87;;;11.70;99.90;;;;;;5015629;28;20663;-77
2023/05/06 00:04:23;;;;;;;6.73;5.20;;;11.70;99.90;;;;;;5016593;28;20236;-77
2023/05/06 00:06:51;;;;;;;7.37;5.40;;;11.60;99.90;;;;;;5015678;28;20217;-76
2023/05/06 00:09:20;;;;;;;6.70;4.90;;;11.60;99.90;;;;;;5016248;28;20225;-77
2023/05/06 00:11:48;;;;;;;6.83;5.23;;;11.60;99.90;;;;;;5015815;28;20694;-78
2023/05/06 00:14:16;;;;;;;7.50;5.43;;;11.60;99.90;;;;;;5016140;28;20213;-77
2023/05/06 00:16:44;;;;;;;7.80;5.33;;;11.60;99.90;;;;;;5016188;28;20272;-77
2023/05/06 00:19:14;;;;;;;7.20;5.30;;;11.60;99.90;;;;;;5015892;28;20229;-76
2023/05/06 00:21:42;;;;;;;8.37;5.57;;;11.60;99.90;;;;;;5015357;28;20214;-78
2023/05/06 00:24:11;;;;;;;8.67;5.60;;;11.50;99.90;;;;;;5015548;28;20307;-77
2023/05/06 00:26:39;;;;;;;9.23;6.00;;;11.60;99.90;;;;;;5015786;28;20209;-77
2023/05/06 00:29:07;;;;;;;9.33;5.20;;;11.60;99.90;;;;;;5015304;28;20225;-78
2023/05/06 00:31:35;;;;;;;7.30;5.70;;;11.60;99.90;;;;;;5025285;28;20233;-77
2023/05/06 00:34:03;;;;;;;7.10;5.40;;;11.50;99.90;;;;;;5022351;28;20205;-78
2023/05/06 00:36:33;;;;;;;7.30;5.50;;;11.40;99.90;;;;;;5013469;28;20206;-77
2023/05/06 00:39:01;;;;;;;5.93;5.07;;;11.40;99.90;;;;;;5012811;28;20232;-75
2023/05/06 00:41:31;;;;;;;5.93;5.03;;;11.30;99.90;;;;;;5012062;28;20229;-76
2023/05/06 00:43:59;;;;;;;7.40;5.63;;;11.30;99.90;;;;;;5012881;28;20214;-77
2023/05/06 00:46:28;;;;;;;6.27;5.63;;;11.20;99.90;;;;;;5019035;28;20237;-77
2023/05/06 00:48:56;;;;;;;6.10;5.43;;;11.20;99.90;;;;;;5025981;28;20687;-75
2023/05/06 00:51:24;;;;;;;6.47;5.87;;;11.10;99.90;;;;;;5030678;28;20224;-76
2023/05/06 00:53:53;;;;;;;11.60;5.87;;;11.10;99.90;;;;;;5034706;28;20283;-77
2023/05/06 00:56:22;;;;;;;8.33;5.90;;;11.10;99.90;;;;;;5031263;28;20575;-76
2023/05/06 00:58:50;;;;;;;7.73;5.90;;;11.10;99.90;;;;;;5034943;28;20232;-77
2023/05/06 01:01:18;;;;;;;8.47;5.93;;;11.10;99.90;;;;;;5018134;28;20576;-76
2023/05/06 01:03:47;;;;;;;7.23;5.97;;;11.10;99.90;;;;;;5033365;28;20798;-77
2023/05/06 01:06:23;;;;;;;6.77;5.90;;;11.10;99.90;;;;;;5033580;28;20221;-75
2023/05/06 01:09:07;;;;;;;9.00;6.17;;;11.10;99.90;;;;;;5030961;28;20209;-74
2023/05/06 01:11:42;;;;;;;8.50;5.60;;;11.00;99.90;;;;;;5016654;28;20203;-75
2023/05/06 01:14:21;;;;;;;9.83;5.67;;;11.00;99.90;;;;;;5034652;28;20561;-75
2023/05/06 01:16:54;;;;;;;7.43;5.93;;;10.90;99.90;;;;;;5042223;28;20239;-76
2023/05/06 01:19:37;;;;;;;7.70;6.37;;;11.00;99.90;;;;;;5033349;28;20296;-77
2023/05/06 01:22:06;;;;;;;7.30;6.10;;;11.00;99.90;;;;;;5034582;28;20213;-78
2023/05/06 01:24:37;;;;;;;8.03;6.40;;;10.90;99.90;;;;;;5034735;28;20223;-78
2023/05/06 01:27:05;;;;;;;8.87;6.57;;;10.90;99.90;;;;;;5031477;28;20295;-75
2023/05/06 01:29:35;;;;;;;8.20;6.50;;;10.90;99.90;;;;;;5020187;28;20225;-76
2023/05/06 01:32:21;;;;;;;8.40;6.50;;;10.90;99.90;;;;;;5034658;28;20227;-77
2023/05/06 01:34:56;;;;;;;7.30;6.60;;;10.90;99.90;;;;;;5034531;28;20288;-76
2023/05/06 01:37:34;;;;;;;7.30;6.57;;;10.90;99.90;;;;;;5015047;28;20587;-77
2023/05/06 01:40:06;;;;;;;8.27;7.03;;;10.80;99.90;;;;;;5014476;28;20210;-75
2023/05/06 01:42:36;;;;;;;9.33;7.30;;;10.80;99.90;;;;;;5014617;28;20218;-76
2023/05/06 01:45:06;;;;;;;9.00;7.43;;;10.80;99.90;;;;;;5014753;28;20213;-77
2023/05/06 01:47:36;;;;;;;8.97;7.20;;;10.80;99.90;;;;;;5016306;28;20698;-79
2023/05/06 01:50:05;;;;;;;9.93;7.77;;;10.80;99.90;;;;;;5033816;28;20231;-77
2023/05/06 01:52:33;;;;;;;8.40;7.53;;;10.80;99.90;;;;;;5032962;28;20228;-76
2023/05/06 01:55:01;;;;;;;10.17;7.87;;;10.80;99.90;;;;;;5032258;28;20200;-77
2023/05/06 01:57:30;;;;;;;8.27;6.77;;;10.80;99.90;;;;;;5033895;28;20240;-77
2023/05/06 01:59:58;;;;;;;8.10;7.17;;;10.70;99.90;;;;;;5034038;28;20288;-75
2023/05/06 02:02:27;;;;;;;8.33;7.00;;;10.70;99.90;;;;;;5032608;28;20262;-76
2023/05/06 02:04:55;;;;;;;7.90;7.10;;;10.70;99.90;;;;;;5033758;28;20208;-79
2023/05/06 02:07:23;;;;;;;7.63;6.70;;;10.60;99.90;;;;;;5016682;28;20205;-76
2023/05/06 02:09:51;;;;;;;8.43;7.10;;;10.60;99.90;;;;;;5013759;28;20213;-77
2023/05/06 02:12:19;;;;;;;8.77;7.20;;;10.60;99.90;;;;;;5013804;28;20206;-76
2023/05/06 02:14:48;;;;;;;7.90;7.10;;;10.60;99.90;;;;;;5014014;28;20216;-77
2023/05/06 02:17:16;;;;;;;9.00;7.67;;;10.60;99.90;;;;;;5013044;28;20220;-76
2023/05/06 02:19:44;;;;;;;9.07;7.27;;;10.50;99.90;;;;;;5022267;28;20232;-74
2023/05/06 02:22:12;;;;;;;8.87;7.70;;;10.50;99.90;;;;;;5013495;28;20213;-77
2023/05/06 02:24:40;;;;;;;8.77;7.70;;;10.50;99.90;;;;;;5013754;28;20209;-77
2023/05/06 02:27:08;;;;;;;8.60;7.70;;;10.50;99.90;;;;;;5018071;28;20209;-76
2023/05/06 02:29:36;;;;;;;9.70;8.20;;;10.50;99.90;;;;;;5033031;28;20662;-77
2023/05/06 02:32:06;;;;;;;8.07;7.27;;;10.50;99.90;;;;;;5033233;28;20239;-78
2023/05/06 02:34:34;;;;;;;8.73;7.83;;;10.50;99.90;;;;;;5029992;28;20215;-77
2023/05/06 02:37:02;;;;;;;9.60;7.77;;;10.50;99.90;;;;;;5013648;28;20620;-76
2023/05/06 02:39:30;;;;;;;8.77;7.87;;;10.60;99.90;;;;;;5013396;28;20221;-76
2023/05/06 02:41:58;;;;;;;8.50;7.60;;;10.60;99.90;;;;;;5012919;28;20206;-77
2023/05/06 02:44:26;;;;;;;8.73;7.40;;;10.60;99.90;;;;;;5012732;28;20252;-77
2023/05/06 02:46:54;;;;;;;8.33;7.13;;;10.60;99.90;;;;;;5012725;28;20226;-76
2023/05/06 02:49:24;;;;;;;10.50;7.10;;;10.60;99.90;;;;;;5005876;28;20292;-76
2023/05/06 02:51:52;;;;;;;8.63;7.00;;;10.70;99.90;;;;;;5015641;28;20244;-77
2023/05/06 02:54:20;;;;;;;7.23;6.43;;;10.70;99.90;;;;;;5033007;28;20213;-77
2023/05/06 02:56:48;;;;;;;7.20;6.50;;;10.60;99.90;;;;;;5032869;28;20551;-77
2023/05/06 02:59:16;;;;;;;7.57;6.50;;;10.70;99.90;;;;;;5032118;28;20345;-77
2023/05/06 03:01:44;;;;;;;7.23;6.20;;;10.70;99.90;;;;;;5013078;28;20206;-77
2023/05/06 03:04:13;;;;;;;7.53;6.17;;;10.70;99.90;;;;;;5012818;28;20209;-78
2023/05/06 03:06:42;;;;;;;8.53;6.60;;;10.70;99.90;;;;;;5012713;28;20260;-79
2023/05/06 03:09:10;;;;;;;8.20;6.33;;;10.70;99.90;;;;;;5012419;28;20300;-77
2023/05/06 03:11:38;;;;;;;10.37;6.30;;;10.80;99.90;;;;;;5012765;28;20237;-79
2023/05/06 03:14:06;;;;;;;6.80;5.77;;;10.80;99.90;;;;;;5012663;28;20213;-78
2023/05/06 03:16:34;;;;;;;7.37;5.63;;;10.70;99.90;;;;;;5012672;28;20304;-77
2023/05/06 03:19:03;;;;;;;6.77;6.07;;;10.80;99.90;;;;;;5027675;28;20735;-79
2023/05/06 03:21:32;;;;;;;7.63;6.33;;;10.80;99.90;;;;;;5032304;28;20209;-77
2023/05/06 03:24:01;;;;;;;8.60;6.17;;;10.80;99.90;;;;;;5032235;28;20220;-78
2023/05/06 03:26:29;;;;;;;7.33;6.30;;;10.70;99.90;;;;;;5032272;28;20651;-78
2023/05/06 03:28:57;;;;;;;8.40;6.23;;;10.80;99.90;;;;;;5012463;28;20564;-77
2023/05/06 03:31:26;;;;;;;7.30;6.10;;;10.80;99.90;;;;;;5012411;28;20232;-79
2023/05/06 03:33:54;;;;;;;6.87;6.07;;;10.80;99.90;;;;;;5012273;28;20218;-77
2023/05/06 03:36:24;;;;;;;7.90;6.00;;;10.80;99.90;;;;;;5012154;28;20213;-78
2023/05/06 03:38:52;;;;;;;7.57;5.80;;;10.70;99.90;;;;;;5012485;28;20217;-78
2023/05/06 03:41:22;;;;;;;8.23;6.00;;;10.70;99.90;;;;;;5012310;28;20565;-79
2023/05/06 03:43:51;;;;;;;7.20;6.10;;;10.60;99.90;;;;;;5011848;28;20685;-78
2023/05/06 03:46:19;;;;;;;6.50;5.80;;;10.60;99.90;;;;;;5011150;28;20244;-77
2023/05/06 03:48:47;;;;;;;7.57;6.17;;;10.60;99.90;;;;;;5027694;28;20233;-78
2023/05/06 03:51:15;;;;;;;7.47;5.80;;;10.60;99.90;;;;;;5031933;28;20256;-77
2023/05/06 03:53:43;;;;;;;10.10;6.30;;;10.60;99.90;;;;;;5029990;28;20205;-78
2023/05/06 03:56:11;;;;;;;6.77;6.00;;;10.50;99.90;;;;;;5012167;28;20212;-77
2023/05/06 03:58:40;;;;;;;11.27;5.93;;;10.50;99.90;;;;;;5012249;28;20571;-78
2023/05/06 04:01:08;;;;;;;7.73;5.87;;;10.60;99.90;;;;;;5012224;28;20221;-78
2023/05/06 04:03:36;;;;;;;8.03;5.90;;;10.60;99.90;;;;;;5011559;28;20666;-79
2023/05/06 04:06:05;;;;;;;6.50;5.77;;;10.60;99.90;;;;;;5012266;28;20209;-76
2023/05/06 04:08:33;;;;;;;7.77;6.37;;;10.60;99.90;;;;;;5014857;28;20612;-78
2023/05/06 04:11:04;;;;;;;8.10;6.57;;;10.60;99.90;;;;;;5012192;28;20232;-78
2023/05/06 04:13:32;;;;;;;7.57;6.17;;;10.60;99.90;;;;;;5011291;28;20205;-77
2023/05/06 04:16:02;;;;;;;9.00;6.70;;;10.60;99.90;;;;;;5011880;28;20216;-76
2023/05/06 04:18:31;;;;;;;7.80;6.10;;;10.70;99.90;;;;;;5012045;28;20264;-78
2023/05/06 04:20:59;;;;;;;7.10;6.37;;;10.70;99.90;;;;;;5012414;28;20213;-79
2023/05/06 04:23:28;;;;;;;8.20;6.60;;;10.80;99.90;;;;;;5026191;28;20228;-78
2023/05/06 04:25:56;;;;;;;7.07;6.37;;;10.80;99.90;;;;;;5031630;28;20209;-79
2023/05/06 04:28:24;;;;;;;9.23;6.90;;;10.90;99.90;;;;;;5031624;28;20725;-78
2023/05/06 04:30:52;;;;;;;8.13;6.90;;;10.90;99.90;;;;;;5030128;28;20213;-77
2023/05/06 04:33:23;;;;;;;7.80;6.67;;;11.00;99.90;;;;;;5011696;28;20205;-76
2023/05/06 04:35:53;;;;;;;7.73;6.53;;;11.00;99.90;;;;;;5012040;28;20236;-80
2023/05/06 04:38:24;;;;;;;8.43;6.77;;;11.00;99.90;;;;;;5004127;28;20288;-77
2023/05/06 04:40:52;;;;;;;8.20;6.30;;;11.10;99.90;;;;;;5011709;28;20244;-80
2023/05/06 04:43:20;;;;;;;9.20;6.63;;;11.10;99.90;;;;;;5015123;28;20316;-78
2023/05/06 04:45:49;;;;;;;7.53;6.23;;;11.10;99.90;;;;;;5015083;28;20667;-79
2023/05/06 04:48:18;;;;;;;9.73;6.63;;;11.10;99.90;;;;;;5024237;28;20219;-76
2023/05/06 04:50:47;;;;;;;8.50;6.60;;;11.10;99.90;;;;;;5015141;28;20245;-78
2023/05/06 04:53:16;;;;;;;8.40;6.33;;;11.10;99.90;;;;;;5015323;28;20229;-78
2023/05/06 04:55:44;;;;;;;7.43;6.30;;;11.10;99.90;;;;;;5015344;28;20308;-80
2023/05/06 04:58:13;;;;;;;7.33;6.60;;;11.10;99.90;;;;;;5013256;28;20236;-77
2023/05/06 05:00:41;;;;;;;8.90;6.47;;;11.20;99.90;;;;;;5014955;28;20209;-78
2023/05/06 05:03:09;;;;;;;11.23;6.77;;;11.20;99.90;;;;;;5014508;28;20718;-76
2023/05/06 05:05:37;;;;;;;8.07;6.87;;;11.20;99.90;;;;;;5015323;28;20245;-79
2023/05/06 05:08:07;;;;;;;7.60;6.87;;;11.30;99.90;;;;;;5015236;28;20219;-79
2023/05/06 05:10:35;;;;;;;7.20;6.50;;;11.40;99.90;;;;;;5015054;28;20202;-78
2023/05/06 05:13:03;;;;;;;9.73;6.53;;;11.50;99.90;;;;;;5014538;28;20323;-79
2023/05/06 05:15:31;;;;;;;8.47;6.47;;;11.50;99.90;;;;;;5015097;28;20231;-79
2023/05/06 05:17:59;;;;;;;8.00;6.17;;;11.60;99.90;;;;;;5014745;28;20694;-78
2023/05/06 05:20:28;;;;;;;6.93;6.23;;;11.80;99.90;;;;;;5015074;28;20213;-78
2023/05/06 05:22:56;;;;;;;6.77;5.97;;;11.90;99.90;;;;;;5013821;28;20224;-76
2023/05/06 05:25:26;;;;;;;8.37;5.40;;;12.00;99.90;;;;;;5032016;28;20303;-77
2023/05/06 05:27:54;;;;;;;7.50;5.50;;;12.10;99.90;;;;;;5034187;28;20231;-76
2023/05/06 05:30:22;;;;;;;7.80;5.97;;;12.30;99.90;;;;;;5033553;28;20213;-74
2023/05/06 05:32:50;;;;;;;7.00;5.47;;;12.40;99.90;;;;;;5033931;28;20232;-75
2023/05/06 05:35:19;;;;;;;6.53;5.80;;;12.50;99.90;;;;;;5032154;28;20295;-73
2023/05/06 05:37:48;;;;;;;9.13;5.80;;;12.70;99.90;;;;;;5013944;28;20245;-78
2023/05/06 05:40:16;;;;;;;6.43;5.43;;;12.80;99.90;;;;;;5021049;28;20679;-77
2023/05/06 05:42:45;;;;;;;5.90;5.30;;;12.90;99.90;;;;;;5034371;28;20205;-74
2023/05/06 05:45:13;;;;;;;7.37;5.20;;;13.00;99.90;;;;;;5034727;28;20647;-75
2023/05/06 05:47:41;;;;;;;6.10;5.50;;;13.20;99.90;;;;;;5035336;28;20295;-76
2023/05/06 05:50:10;;;;;;;9.30;5.60;;;13.40;99.90;;;;;;5033421;28;20205;-79
2023/05/06 05:52:38;;;;;;;11.37;7.40;;;13.70;99.90;;;;;;5035451;28;20260;-76
2023/05/06 05:55:07;;;;;;;7.83;7.03;;;13.70;99.90;;;;;;5035323;28;20266;-79
2023/05/06 05:57:36;;;;;;;7.83;6.97;;;13.80;99.90;;;;;;5035046;28;20694;-78
2023/05/06 06:00:07;;;;;;;9.03;7.40;;;13.70;99.90;;;;;;5019748;28;20209;-75
2023/05/06 06:02:37;;;;;;;7.67;6.83;;;13.70;99.90;;;;;;5015865;28;20190;-74
2023/05/06 06:05:06;;;;;;;10.33;7.80;;;13.60;99.90;;;;;;5014689;28;20213;-77
2023/05/06 06:07:34;;;;;;;8.53;7.60;;;13.70;99.90;;;;;;5017333;28;20229;-78
2023/05/06 06:10:03;;;;;;;9.00;7.50;;;13.70;99.90;;;;;;5022752;28;20228;-75
2023/05/06 06:12:31;;;;;;;8.73;7.83;;;13.70;99.90;;;;;;5023141;28;20690;-77
2023/05/06 06:14:59;;;;;;;8.20;7.40;;;13.80;99.90;;;;;;5025221;28;20291;-74
2023/05/06 06:17:29;;;;;;;8.90;8.00;;;13.80;99.90;;;;;;5030378;28;20270;-77
2023/05/06 06:19:58;;;;;;;10.20;8.10;;;13.70;99.90;;;;;;5033983;28;20212;-75
2023/05/06 06:22:26;;;;;;;9.07;8.17;;;13.60;99.90;;;;;;5036528;28;20240;-76
2023/05/06 06:24:55;;;;;;;8.40;7.17;;;13.70;99.90;;;;;;5020730;28;20221;-75
2023/05/06 06:27:24;;;;;;;6.67;5.97;;;14.40;99.90;;;;;;5031733;28;20206;-75
2023/05/06 06:29:52;;;;;;;6.03;4.90;;;15.40;99.90;;;;;;5014138;28;20296;-75
2023/05/06 06:32:20;;;;;;;5.17;4.67;;;16.60;99.90;;;;;;5013967;28;20322;-77
2023/05/06 06:34:49;;;;;;;6.47;4.57;;;17.80;99.90;;;;;;5013751;28;20618;-75
2023/05/06 06:37:17;;;;;;;7.00;4.87;;;18.00;99.90;;;;;;5019979;28;20219;-75
2023/05/06 06:39:46;;;;;;;5.50;4.70;;;17.50;99.90;;;;;;5024261;28;20228;-76
2023/05/06 06:42:14;;;;;;;6.13;4.60;;;17.00;99.90;;;;;;5028945;28;20231;-75
2023/05/06 06:44:42;;;;;;;5.30;4.60;;;16.60;99.90;;;;;;5025559;28;20570;-75
2023/05/06 06:47:10;;;;;;;7.03;4.80;;;16.30;99.90;;;;;;5031477;28;20223;-73
2023/05/06 06:49:39;;;;;;;5.53;5.00;;;16.20;99.90;;;;;;5014759;28;20213;-73
2023/05/06 06:52:09;;;;;;;5.87;5.27;;;16.00;99.90;;;;;;5027409;28;20288;-74
2023/05/06 06:54:37;;;;;;;6.80;5.37;;;15.90;99.90;;;;;;5033535;28;20213;-75
2023/05/06 06:57:06;;;;;;;7.47;6.20;;;15.80;99.90;;;;;;5028201;28;20221;-75
2023/05/06 06:59:35;;;;;;;5.43;4.93;;;15.70;99.90;;;;;;5013567;28;20295;-74
2023/05/06 07:02:03;;;;;;;7.50;5.57;;;15.70;99.90;;;;;;5013267;28;20291;-75
2023/05/06 07:04:31;;;;;;;5.80;5.20;;;15.60;99.90;;;;;;5013166;28;20241;-76
2023/05/06 07:06:59;;;;;;;6.63;5.23;;;15.60;99.90;;;;;;5029725;28;20244;-75
2023/05/06 07:09:28;;;;;;;7.93;5.70;;;15.50;99.90;;;;;;5032769;28;20201;-73
2023/05/06 07:11:57;;;;;;;6.87;6.17;;;15.20;99.90;;;;;;5032375;28;20288;-72
2023/05/06 07:14:25;;;;;;;7.07;6.03;;;15.20;99.90;;;;;;5031221;28;20228;-74
2023/05/06 07:16:53;;;;;;;7.67;5.83;;;15.10;99.90;;;;;;5030187;28;20197;-75
2023/05/06 07:19:21;;;;;;;7.27;5.50;;;15.10;99.90;;;;;;5032552;28;20208;-75
2023/05/06 07:21:49;;;;;;;7.43;6.13;;;15.00;99.90;;;;;;5031203;28;20343;-74
2023/05/06 07:24:17;;;;;;;8.83;6.40;;;15.00;99.90;;;;;;5032049;28;20204;-74
2023/05/06 07:26:47;;;;;;;7.40;6.10;;;15.00;99.90;;;;;;5032501;28;20300;-74
2023/05/06 07:29:15;;;;;;;7.53;6.73;;;15.10;99.90;;;;;;5032797;28;20723;-77
2023/05/06 07:31:43;;;;;;;8.60;6.20;;;15.10;99.90;;;;;;5029041;28;20608;-74
2023/05/06 07:34:11;;;;;;;8.20;6.17;;;15.30;99.90;;;;;;5032298;28;20233;-77
2023/05/06 07:36:41;;;;;;;6.10;5.50;;;15.60;99.90;;;;;;5032478;28;20670;-75
2023/05/06 07:39:10;;;;;;;7.37;5.50;;;16.20;99.90;;;;;;5032725;28;20263;-75
2023/05/06 07:41:38;;;;;;;4.73;4.20;;;16.90;99.90;;;;;;5032313;28;20233;-77
2023/05/06 07:44:08;;;;;;;5.87;4.57;;;17.90;99.90;;;;;;5032168;28;20280;-74
2023/05/06 07:46:36;;;;;;;4.70;4.20;;;18.30;99.90;;;;;;5033104;28;20205;-75
2023/05/06 07:49:04;;;;;;;5.67;4.40;;;18.70;99.90;;;;;;5032644;28;20217;-74
2023/05/06 07:51:32;;;;;;;5.87;4.10;;;18.90;99.90;;;;;;5035434;28;20565;-75
2023/05/06 07:54:00;;;;;;;5.70;4.47;;;19.00;99.90;;;;;;5033478;28;20263;-74
2023/05/06 07:56:30;;;;;;;5.33;4.53;;;18.70;99.90;;;;;;5033701;28;20212;-73
2023/05/06 07:58:59;;;;;;;6.67;4.80;;;18.40;99.90;;;;;;5033457;28;20272;-76
2023/05/06 08:01:29;;;;;;;5.47;4.97;;;17.90;99.90;;;;;;5031556;28;20694;-73
2023/05/06 08:03:59;;;;;;;8.73;5.20;;;17.40;99.90;;;;;;5031419;28;20207;-74
2023/05/06 08:06:27;;;;;;;5.63;4.97;;;17.20;99.90;;;;;;5030654;28;20259;-76
2023/05/06 08:08:55;;;;;;;5.50;4.93;;;17.10;99.90;;;;;;5033471;28;20667;-76
2023/05/06 08:11:23;;;;;;;7.63;5.30;;;16.90;99.90;;;;;;5033036;28;20213;-75
2023/05/06 08:13:52;;;;;;;7.03;4.93;;;16.80;99.90;;;;;;5031411;28;20228;-75
2023/05/06 08:16:20;;;;;;;5.60;5.10;;;16.70;99.90;;;;;;5034986;28;20227;-77
2023/05/06 08:18:53;;;;;;;5.57;4.80;;;16.90;99.90;;;;;;5036857;28;20205;-75
2023/05/06 08:21:21;;;;;;;6.90;5.10;;;16.60;99.90;;;;;;5037943;28;20212;-76
2023/05/06 08:23:49;;;;;;;5.87;5.37;;;16.40;99.90;;;;;;5025869;28;20209;-76
2023/05/06 08:26:17;;;;;;;7.90;5.63;;;16.30;99.90;;;;;;5036979;28;20213;-74
2023/05/06 08:28:46;;;;;;;6.27;5.20;;;16.40;99.90;;;;;;5037920;28;20209;-76
2023/05/06 08:31:14;;;;;;;7.10;5.50;;;16.20;99.90;;;;;;5038143;28;20215;-77
2023/05/06 08:33:42;;;;;;;4.83;4.30;;;16.60;99.90;;;;;;5036072;28;20279;-75
2023/05/06 08:36:11;;;;;;;5.17;4.27;;;16.80;99.90;;;;;;5037867;28;20213;-76
2023/05/06 08:38:39;;;;;;;6.67;4.33;;;17.10;99.90;;;;;;5037861;28;20304;-76
2023/05/06 08:41:09;;;;;;;7.23;4.83;;;16.90;99.90;;;;;;5035816;28;20252;-73
2023/05/06 08:43:41;;;;;;;5.90;4.93;;;17.10;99.90;;;;;;5036569;28;20659;-75
2023/05/06 08:46:10;;;;;;;6.53;4.83;;;17.20;99.90;;;;;;5037072;28;20301;-75
2023/05/06 08:48:39;;;;;;;6.10;5.07;;;17.60;99.90;;;;;;5036031;28;20201;-76
2023/05/06 08:51:07;;;;;;;5.30;4.67;;;18.20;99.90;;;;;;5036619;28;20212;-74
2023/05/06 08:53:39;;;;;;;5.43;4.60;;;18.80;99.90;;;;;;5037396;28;20326;-77
2023/05/06 08:56:09;;;;;;;7.07;4.43;;;19.10;99.90;;;;;;5035191;28;20308;-75
2023/05/06 08:58:38;;;;;;;4.97;4.37;;;19.20;99.90;;;;;;5030715;28;20699;-76
2023/05/06 09:01:07;;;;;;;5.63;3.70;;;19.40;99.90;;;;;;5031586;28;20212;-76
2023/05/06 09:03:35;;;;;;;5.70;3.70;;;19.50;99.90;;;;;;5026376;28;20208;-76
2023/05/06 09:06:05;;;;;;;4.10;3.57;;;19.60;99.90;;;;;;5040739;28;20206;-75
2023/05/06 09:08:34;;;;;;;4.03;3.63;;;20.10;99.90;;;;;;5036250;28;20217;-74
2023/05/06 09:11:20;;;;;;;3.60;3.30;;;20.70;99.90;;;;;;5038181;28;20208;-75
2023/05/06 09:13:48;;;;;;;5.07;3.83;;;21.60;99.90;;;;;;5030237;28;20283;-75
2023/05/06 09:16:31;;;;;;;4.80;4.07;;;21.30;99.90;;;;;;5025411;28;20212;-75
2023/05/06 09:18:59;;;;;;;4.87;3.97;;;20.90;99.90;;;;;;5024560;28;20213;-76
2023/05/06 09:21:33;;;;;;;4.90;3.50;;;20.40;99.90;;;;;;5035615;28;20210;-76
2023/05/06 09:24:02;;;;;;;6.53;3.43;;;20.20;99.90;;;;;;5021528;28;20288;-75
2023/05/06 09:26:33;;;;;;;4.10;3.67;;;19.70;99.90;;;;;;5016672;28;20217;-75
2023/05/06 09:29:02;;;;;;;5.00;3.40;;;19.20;99.90;;;;;;5015251;28;20287;-74
2023/05/06 09:31:30;;;;;;;4.83;3.83;;;19.40;99.90;;;;;;5016688;28;20214;-74
2023/05/06 09:34:00;;;;;;;4.23;3.60;;;19.40;99.90;;;;;;5017470;28;20233;-74
2023/05/06 09:36:28;;;;;;;4.37;3.80;;;19.70;99.90;;;;;;5019650;28;20293;-74
2023/05/06 09:38:56;;;;;;;3.93;3.50;;;20.10;99.90;;;;;;5016084;28;20210;-75
2023/05/06 09:41:25;;;;;;;3.87;3.47;;;20.10;99.90;;;;;;5016297;28;20214;-75
2023/05/06 09:43:57;;;;;;;5.37;4.33;;;20.00;99.90;;;;;;5014746;28;20220;-75
2023/05/06 09:46:27;;;;;;;4.37;3.70;;;20.20;99.90;;;;;;5015150;28;20220;-75
2023/05/06 09:48:57;;;;;;;4.83;3.60;;;21.00;99.90;;;;;;5014918;28;20213;-78
2023/05/06 09:51:27;;;;;;;5.07;3.60;;;20.90;99.90;;;;;;5014796;28;20666;-76
2023/05/06 09:53:57;;;;;;;5.50;3.80;;;20.80;99.90;;;;;;5014308;28;20201;-78
2023/05/06 09:56:25;;;;;;;3.50;3.20;;;20.80;99.90;;;;;;5025843;28;20219;-75
2023/05/06 09:59:00;;;;;;;4.60;3.63;;;21.00;99.90;;;;;;5034941;28;20321;-76
2023/05/06 10:01:30;;;;;;;3.20;2.87;;;20.70;99.90;;;;;;5034738;28;20227;-76
2023/05/06 10:04:08;;;;;;;4.47;3.10;;;21.00;99.90;;;;;;5029127;28;20212;-74
2023/05/06 10:06:39;;;;;;;4.40;3.30;;;20.50;99.90;;;;;;5034147;28;20225;-73
2023/05/06 10:09:08;;;;;;;3.93;3.30;;;20.30;99.90;;;;;;5031144;28;20201;-74
2023/05/06 10:11:36;;;;;;;3.80;3.40;;;20.10;99.90;;;;;;5036046;28;20659;-73
2023/05/06 10:14:07;;;;;;;4.47;3.40;;;19.80;99.90;;;;;;5033239;28;20213;-74
2023/05/06 10:16:36;;;;;;;3.70;3.30;;;20.10;99.90;;;;;;5052193;28;20205;-74
2023/05/06 10:19:08;;;;;;;5.77;3.20;;;20.80;99.90;;;;;;5047946;28;20205;-75
2023/05/06 10:21:39;;;;;;;3.90;3.03;;;21.30;99.90;;;;;;5052424;28;20217;-77
2023/05/06 10:24:11;;;;;;;3.20;2.70;;;21.70;99.90;;;;;;5049767;28;20207;-76
2023/05/06 10:26:40;;;;;;;4.83;2.70;;;22.70;99.90;;;;;;5035134;28;20207;-77
2023/05/06 10:29:11;;;;;;;3.80;2.90;;;23.50;99.90;;;;;;5032298;28;20208;-78
2023/05/06 10:31:44;;;;;;;3.00;2.60;;;24.90;99.90;;;;;;5020946;28;20227;-78
2023/05/06 10:34:13;;;;;;;3.35;2.88;;;25.80;99.90;;;;;;5014513;28;20244;-83
2023/05/06 10:36:44;;;;;;;3.78;2.10;;;26.50;99.90;;;;;;5017586;28;20631;-81
2023/05/06 10:39:13;;;;;;;3.88;2.00;;;26.80;97.70;;;;;;5028150;28;20209;-80
2023/05/06 10:41:42;;;;;;;3.47;2.30;;;26.10;98.00;;;;;;5033866;28;20679;-78
2023/05/06 10:44:12;;;;;;;4.47;2.00;;;25.70;97.20;;;;;;5036632;28;20244;-78
2023/05/06 10:47:00;;;;;;;3.33;1.88;;;26.90;95.40;;;;;;5018423;28;20216;-79
2023/05/06 10:49:28;;;;;;;2.13;1.80;;;26.40;95.40;;;;;;5025891;28;20225;-80
2023/05/06 10:52:20;;;;;;;3.65;1.83;;;26.90;95.00;;;;;;5034657;28;20216;-81
2023/05/06 10:54:50;;;;;;;2.60;1.83;;;26.60;96.00;;;;;;5017591;28;20206;-79
2023/05/06 10:57:19;;;;;;;3.55;2.05;;;26.00;94.40;;;;;;5018165;28;20248;-78
2023/05/06 10:59:49;;;;;;;2.47;1.75;;;25.20;97.60;;;;;;5026007;28;20284;-81
2023/05/06 11:02:19;;;;;;;2.30;1.60;;;25.20;98.50;;;;;;5036817;28;20212;-80
2023/05/06 11:04:51;;;;;;;2.28;2.00;;;25.40;96.90;;;;;;5016101;28;20217;-77
2023/05/06 11:07:24;;;;;;;2.75;2.10;;;25.70;95.30;;;;;;5016161;28;20268;-78
2023/05/06 11:09:56;;;;;;;3.88;1.80;;;26.70;94.70;;;;;;5020675;28;20217;-79
2023/05/06 11:12:46;;;;;;;2.95;1.90;;;26.80;91.50;;;;;;5016561;28;20219;-78
2023/05/06 11:15:40;;;;;;;2.15;1.85;;;25.80;93.50;;;;;;5032701;28;20227;-80
2023/05/06 11:18:44;;;;;;;3.00;1.75;;;25.50;95.80;;;;;;5028576;28;20208;-78
2023/05/06 11:21:40;;;;;;;2.13;1.40;;;25.10;97.30;;;;;;5031541;28;20201;-80
2023/05/06 11:24:13;;;;;;;4.07;1.73;;;25.70;93.80;;;;;;5026403;28;20201;-78
2023/05/06 11:26:42;;;;;;;3.50;2.22;;;25.10;94.30;;;;;;5033757;28;20228;-78
2023/05/06 11:29:11;;;;;;;2.88;2.17;;;25.10;95.00;;;;;;5038274;28;20203;-78
2023/05/06 11:31:42;;;;;;;2.97;2.28;;;23.30;95.90;;;;;;5031441;28;20201;-77
2023/05/06 11:34:14;;;;;;;3.10;2.57;;;23.30;99.50;;;;;;5031908;28;20292;-75
2023/05/06 11:37:01;;;;;;;5.30;2.73;;;23.00;99.90;;;;;;5034131;28;20484;-76
2023/05/06 11:39:30;;;;;;;3.73;2.87;;;22.20;99.90;;;;;;5033626;28;20262;-76
2023/05/06 11:42:05;;;;;;;4.67;2.70;;;22.00;99.90;;;;;;5030570;28;20196;-76
2023/05/06 11:44:36;;;;;;;3.93;2.87;;;22.40;99.90;;;;;;5032730;28;20216;-75
2023/05/06 11:47:07;;;;;;;3.83;2.57;;;21.80;99.90;;;;;;5032643;28;20717;-75
2023/05/06 11:49:42;;;;;;;3.37;2.50;;;21.80;99.90;;;;;;5031780;28;20304;-75
2023/05/06 11:52:11;;;;;;;4.53;2.30;;;21.40;99.90;;;;;;5038881;28;20629;-75
2023/05/06 11:54:41;;;;;;;2.60;2.00;;;20.60;99.90;;;;;;5038914;28;20216;-75
2023/05/06 11:57:09;;;;;;;3.13;2.50;;;20.70;99.90;;;;;;5039003;28;20209;-74
2023/05/06 11:59:39;;;;;;;3.33;2.30;;;20.80;99.90;;;;;;5032894;28;20228;-77
2023/05/06 12:02:11;;;;;;;3.70;1.80;;;21.10;99.90;;;;;;5038090;28;20199;-75
2023/05/06 12:04:41;;;;;;;4.00;2.20;;;21.60;99.90;;;;;;5035773;28;20209;-75
2023/05/06 12:07:12;;;;;;;2.40;1.90;;;22.00;99.90;;;;;;5038040;28;20643;-76
2023/05/06 12:09:42;;;;;;;5.43;2.20;;;22.10;99.90;;;;;;5036405;28;20577;-77
2023/05/06 12:12:12;;;;;;;3.10;2.50;;;22.20;99.90;;;;;;5038783;28;20205;-76
2023/05/06 12:14:41;;;;;;;2.60;2.40;;;21.90;99.90;;;;;;5035474;28;20223;-75
2023/05/06 12:17:11;;;;;;;4.13;2.20;;;21.70;99.90;;;;;;5036359;28;20200;-77
2023/05/06 12:19:39;;;;;;;2.57;2.17;;;21.90;99.90;;;;;;5039598;28;20216;-74
2023/05/06 12:22:17;;;;;;;3.53;2.40;;;22.30;99.90;;;;;;5019709;28;20259;-76
2023/05/06 12:24:46;;;;;;;3.20;2.67;;;22.30;99.90;;;;;;5039391;28;20223;-76
2023/05/06 12:27:14;;;;;;;4.20;2.17;;;22.10;99.90;;;;;;5042611;28;20239;-76
2023/05/06 12:29:52;;;;;;;2.40;2.00;;;22.30;99.90;;;;;;5035428;28;20238;-75
2023/05/06 12:32:22;;;;;;;2.80;2.20;;;22.70;99.90;;;;;;5053718;28;20204;-76
2023/05/06 12:34:50;;;;;;;2.57;2.20;;;23.00;99.90;;;;;;5052333;28;20197;-77
2023/05/06 12:37:29;;;;;;;4.50;2.20;;;22.70;99.90;;;;;;5046757;28;20220;-76
2023/05/06 12:39:58;;;;;;;2.87;2.00;;;22.30;99.90;;;;;;5046428;28;20201;-76
2023/05/06 12:42:26;;;;;;;2.53;1.97;;;22.40;99.90;;;;;;5043358;28;20211;-77
2023/05/06 12:44:56;;;;;;;3.07;1.47;;;22.00;99.90;;;;;;5040658;28;20295;-75
2023/05/06 12:47:26;;;;;;;1.77;1.63;;;22.20;99.00;;;;;;5038043;28;20228;-76
2023/05/06 12:49:56;;;;;;;2.37;1.70;;;22.10;97.70;;;;;;5039890;28;20205;-75
2023/05/06 12:52:28;;;;;;;5.00;1.60;;;22.30;99.00;;;;;;5044883;28;20557;-77
2023/05/06 12:54:57;;;;;;;2.10;1.73;;;22.30;99.90;;;;;;5041990;28;20209;-76
2023/05/06 12:57:25;;;;;;;3.30;1.90;;;22.70;99.90;;;;;;5035674;28;20209;-76
2023/05/06 12:59:55;;;;;;;3.73;1.70;;;23.20;99.90;;;;;;5038924;28;20211;-77